Time;durP1;ratioP1;P1;durP2;ratioP2;P2;SDS_P1;SDS_P2;PMS_P1;PMS_P2;Temp;Humidity;BMP_temperature;BMP_pressure;BME280_temperature;BME280_humidity;BME280_pressure;Samples;Min_cycle;Max_cycle;Signal;HPM_P1;HPM_P2
2024/01/08 00:00:08;;;;;;;1.97;1.87;;;19.10;40.50;;;;;;5014823;28;20225;-87
2024/01/08 00:02:33;;;;;;;1.70;1.60;;;19.10;40.40;;;;;;5010660;28;20238;-87
2024/01/08 00:04:59;;;;;;;1.80;1.70;;;19.10;40.50;;;;;;5007880;28;22340;-87
2024/01/08 00:07:25;;;;;;;1.70;1.60;;;19.10;40.40;;;;;;5013376;28;20284;-87
2024/01/08 00:09:51;;;;;;;1.77;1.67;;;19.10;40.40;;;;;;5009351;28;20223;-87
2024/01/08 00:12:16;;;;;;;1.70;1.60;;;19.10;40.40;;;;;;5012221;28;20438;-87
2024/01/08 00:14:42;;;;;;;1.93;1.83;;;19.10;40.40;;;;;;5006562;28;20285;-88
2024/01/08 00:17:07;;;;;;;2.07;1.97;;;19.10;40.50;;;;;;5009255;28;20306;-87
2024/01/08 00:19:33;;;;;;;1.60;1.50;;;19.10;40.40;;;;;;5010648;28;20230;-86
2024/01/08 00:21:58;;;;;;;1.67;1.57;;;19.10;40.40;;;;;;5013823;28;20222;-88
2024/01/08 00:24:24;;;;;;;2.20;2.10;;;19.10;40.40;;;;;;5010264;28;20227;-86
2024/01/08 00:26:50;;;;;;;1.60;1.50;;;19.10;40.50;;;;;;5012405;28;20278;-87
2024/01/08 00:29:15;;;;;;;1.80;1.70;;;19.10;40.40;;;;;;5015557;28;20385;-88
2024/01/08 00:31:41;;;;;;;1.60;1.50;;;19.10;40.40;;;;;;5013073;28;20224;-88
2024/01/08 00:34:06;;;;;;;3.23;1.30;;;19.10;40.40;;;;;;5012674;28;20234;-87
2024/01/08 00:36:34;;;;;;;1.80;1.70;;;19.10;40.40;;;;;;5005456;28;20230;-87
2024/01/08 00:39:00;;;;;;;1.90;1.80;;;19.10;40.40;;;;;;4997160;28;20281;-87
2024/01/08 00:41:25;;;;;;;1.50;1.40;;;19.10;40.40;;;;;;5013531;28;20450;-88
2024/01/08 00:43:51;;;;;;;1.40;1.30;;;19.10;40.40;;;;;;5012506;28;20241;-86
2024/01/08 00:46:17;;;;;;;1.57;1.47;;;19.10;40.30;;;;;;4994517;28;20317;-86
2024/01/08 00:48:43;;;;;;;1.40;1.30;;;19.10;40.40;;;;;;5009943;28;20218;-87
2024/01/08 00:51:09;;;;;;;1.70;1.60;;;19.10;40.30;;;;;;5010220;28;20463;-86
2024/01/08 00:53:35;;;;;;;1.50;1.40;;;19.10;40.30;;;;;;5007402;28;20215;-87
2024/01/08 00:56:00;;;;;;;1.63;1.53;;;19.10;40.40;;;;;;5010224;28;21578;-89
2024/01/08 00:58:26;;;;;;;2.23;1.63;;;19.10;40.30;;;;;;5010978;28;20556;-88
2024/01/08 01:00:51;;;;;;;2.00;1.90;;;19.10;40.30;;;;;;5010621;28;20785;-86
2024/01/08 01:03:17;;;;;;;2.20;1.50;;;19.10;40.40;;;;;;5011613;28;20222;-88
2024/01/08 01:05:42;;;;;;;1.60;1.40;;;19.10;40.30;;;;;;5013387;28;20219;-87
2024/01/08 01:08:08;;;;;;;1.70;1.60;;;19.10;40.30;;;;;;5017173;28;20302;-87
2024/01/08 01:10:33;;;;;;;1.53;1.43;;;19.10;40.30;;;;;;5011582;28;20686;-86
2024/01/08 01:12:59;;;;;;;1.80;1.70;;;19.10;40.30;;;;;;5013378;28;20246;-87
2024/01/08 01:15:25;;;;;;;1.50;1.40;;;19.10;40.30;;;;;;5009479;28;20273;-88
2024/01/08 01:17:50;;;;;;;1.50;1.40;;;19.10;40.30;;;;;;5011399;28;20655;-86
2024/01/08 01:20:16;;;;;;;1.63;1.53;;;19.10;40.30;;;;;;5011778;28;20621;-88
2024/01/08 01:22:42;;;;;;;2.70;1.50;;;19.10;40.30;;;;;;5013528;28;20868;-87
2024/01/08 01:25:07;;;;;;;1.70;1.60;;;19.10;40.30;;;;;;4997249;28;20753;-86
2024/01/08 01:27:33;;;;;;;1.60;1.50;;;19.10;40.30;;;;;;5011641;28;21181;-86
2024/01/08 01:29:59;;;;;;;1.50;1.40;;;19.00;40.20;;;;;;4994528;28;20338;-89
2024/01/08 01:32:24;;;;;;;1.70;1.57;;;19.10;40.30;;;;;;5010403;28;20924;-88
2024/01/08 01:34:50;;;;;;;1.43;1.33;;;19.00;40.20;;;;;;5011735;28;20348;-87
2024/01/08 01:37:15;;;;;;;1.80;1.70;;;19.10;40.40;;;;;;5016044;28;20231;-87
2024/01/08 01:39:41;;;;;;;2.10;2.00;;;19.10;40.30;;;;;;5018177;28;20286;-88
2024/01/08 01:42:06;;;;;;;1.60;1.50;;;19.10;40.30;;;;;;5018806;28;20607;-87
2024/01/08 01:44:32;;;;;;;1.60;1.50;;;19.00;40.20;;;;;;5008114;28;20304;-87
2024/01/08 01:46:58;;;;;;;1.70;1.60;;;19.10;40.30;;;;;;5018041;28;20275;-88
2024/01/08 01:49:24;;;;;;;1.70;1.60;;;19.00;40.20;;;;;;5017974;28;20221;-87
2024/01/08 01:51:51;;;;;;;1.60;1.50;;;19.00;40.20;;;;;;5018706;28;20460;-87
2024/01/08 01:54:21;;;;;;;1.87;1.77;;;19.10;40.30;;;;;;5016317;28;20528;-87
2024/01/08 01:56:53;;;;;;;1.60;1.50;;;19.00;40.20;;;;;;5014654;28;20459;-86
2024/01/08 01:59:19;;;;;;;1.57;1.47;;;19.00;40.20;;;;;;5015921;28;20439;-87
2024/01/08 02:01:46;;;;;;;1.60;1.50;;;19.00;40.20;;;;;;4998882;28;20460;-87
2024/01/08 02:04:14;;;;;;;1.63;1.53;;;19.00;40.20;;;;;;5013960;28;20449;-86
2024/01/08 02:06:40;;;;;;;1.40;1.30;;;19.00;40.10;;;;;;5001966;28;20517;-87
2024/01/08 02:09:07;;;;;;;1.60;1.50;;;19.00;40.10;;;;;;5015265;28;20915;-88
2024/01/08 02:11:32;;;;;;;1.70;1.60;;;19.00;40.10;;;;;;5020006;28;21145;-87
2024/01/08 02:13:58;;;;;;;1.60;1.50;;;19.00;40.10;;;;;;5017193;28;20490;-87
2024/01/08 02:16:24;;;;;;;1.50;1.40;;;19.00;40.10;;;;;;5016920;28;20539;-87
2024/01/08 02:18:50;;;;;;;1.40;1.30;;;19.00;40.10;;;;;;5016854;28;20306;-89
2024/01/08 02:21:15;;;;;;;1.50;1.40;;;19.00;40.10;;;;;;5003735;28;20227;-87
2024/01/08 02:23:41;;;;;;;1.40;1.30;;;19.00;40.10;;;;;;5003621;28;20218;-85
2024/01/08 02:26:08;;;;;;;1.57;1.30;;;19.00;40.10;;;;;;5016985;28;20702;-88
2024/01/08 02:28:33;;;;;;;1.40;1.30;;;19.00;40.10;;;;;;5017672;28;20222;-87
2024/01/08 02:30:59;;;;;;;1.60;1.50;;;19.00;40.00;;;;;;5016750;28;21871;-86
2024/01/08 02:33:24;;;;;;;1.50;1.40;;;19.00;40.00;;;;;;5000382;28;20540;-86
2024/01/08 02:35:51;;;;;;;1.40;1.30;;;19.00;40.10;;;;;;4999804;28;20230;-86
2024/01/08 02:38:16;;;;;;;1.70;1.60;;;19.00;40.10;;;;;;5003534;28;20247;-87
2024/01/08 02:40:42;;;;;;;1.97;1.87;;;19.00;40.00;;;;;;5014855;28;21041;-86
2024/01/08 02:43:08;;;;;;;1.53;1.43;;;19.00;40.00;;;;;;5001189;28;20570;-87
2024/01/08 02:45:33;;;;;;;1.60;1.50;;;19.00;40.00;;;;;;5018490;28;21526;-87
2024/01/08 02:47:59;;;;;;;1.30;1.20;;;19.00;40.00;;;;;;5000760;28;20282;-86
2024/01/08 02:50:24;;;;;;;1.43;1.33;;;19.00;40.00;;;;;;5016733;28;20230;-86
2024/01/08 02:52:50;;;;;;;1.40;1.30;;;19.10;40.10;;;;;;5010549;28;20281;-88
2024/01/08 02:55:16;;;;;;;1.50;1.40;;;19.00;40.00;;;;;;5014494;28;20262;-87
2024/01/08 02:57:41;;;;;;;1.67;1.57;;;19.00;40.00;;;;;;5013860;28;20225;-86
2024/01/08 03:00:08;;;;;;;1.50;1.40;;;19.00;40.00;;;;;;5019288;28;20333;-85
2024/01/08 03:02:34;;;;;;;1.50;1.40;;;19.00;40.00;;;;;;5001207;28;20230;-88
2024/01/08 03:05:00;;;;;;;1.53;1.43;;;19.00;40.00;;;;;;5016677;28;28168;-86
2024/01/08 03:07:26;;;;;;;1.90;1.80;;;19.00;40.70;;;;;;5011623;28;20464;-86
2024/01/08 03:09:56;;;;;;;1.50;1.40;;;19.00;39.90;;;;;;5000362;28;20303;-86
2024/01/08 03:12:23;;;;;;;1.33;1.23;;;19.00;39.90;;;;;;4994428;28;20741;-86
2024/01/08 03:14:48;;;;;;;1.50;1.40;;;19.00;39.90;;;;;;5016382;28;20779;-86
2024/01/08 03:17:14;;;;;;;1.60;1.50;;;19.00;39.90;;;;;;5012807;28;20431;-87
2024/01/08 03:19:39;;;;;;;2.27;1.37;;;19.00;39.90;;;;;;5015404;28;20270;-86
2024/01/08 03:22:05;;;;;;;1.30;1.20;;;19.00;39.90;;;;;;5015133;28;21882;-87
2024/01/08 03:24:31;;;;;;;1.50;1.40;;;19.00;39.90;;;;;;4997650;28;20219;-86
2024/01/08 03:26:57;;;;;;;1.97;1.60;;;19.00;39.80;;;;;;5018480;28;20239;-86
2024/01/08 03:29:23;;;;;;;1.40;1.30;;;19.00;39.80;;;;;;5013727;28;20446;-88
2024/01/08 03:31:49;;;;;;;1.50;1.40;;;19.00;39.90;;;;;;5014025;28;20250;-87
2024/01/08 03:34:15;;;;;;;1.60;1.50;;;19.00;39.80;;;;;;5009200;28;20514;-88
2024/01/08 03:36:47;;;;;;;2.27;1.33;;;19.00;39.80;;;;;;5006810;28;20223;-86
2024/01/08 03:39:17;;;;;;;1.33;1.23;;;19.00;39.80;;;;;;4997080;28;20552;-87
2024/01/08 03:41:43;;;;;;;1.40;1.30;;;19.00;39.80;;;;;;5013300;28;20549;-86
2024/01/08 03:44:10;;;;;;;1.43;1.33;;;19.00;39.90;;;;;;4999963;28;21119;-87
2024/01/08 03:46:36;;;;;;;1.70;1.60;;;19.00;39.90;;;;;;5016874;28;20420;-87
2024/01/08 03:49:03;;;;;;;1.30;1.20;;;19.00;39.80;;;;;;5013175;28;20933;-87
2024/01/08 03:51:29;;;;;;;1.50;1.40;;;19.00;39.80;;;;;;5012931;28;21166;-87
2024/01/08 03:53:55;;;;;;;1.70;1.53;;;19.00;40.20;;;;;;5002459;28;20433;-86
2024/01/08 03:56:21;;;;;;;1.37;1.27;;;19.00;39.80;;;;;;5007585;28;20468;-87
2024/01/08 03:58:46;;;;;;;1.50;1.40;;;19.00;39.80;;;;;;5013126;28;20229;-87
2024/01/08 04:01:12;;;;;;;1.20;1.10;;;19.00;39.80;;;;;;4996051;28;20226;-87
2024/01/08 04:03:38;;;;;;;1.57;1.47;;;19.00;39.80;;;;;;5015789;28;20725;-87
2024/01/08 04:06:03;;;;;;;1.40;1.30;;;19.00;39.80;;;;;;5015184;28;20242;-87
2024/01/08 04:08:29;;;;;;;1.40;1.30;;;19.00;39.80;;;;;;5014499;28;20442;-87
2024/01/08 04:10:55;;;;;;;1.43;1.33;;;19.00;39.80;;;;;;5013554;28;20241;-87
2024/01/08 04:13:20;;;;;;;1.53;1.43;;;19.00;39.80;;;;;;5016253;28;20223;-86
2024/01/08 04:15:46;;;;;;;1.43;1.33;;;19.00;39.80;;;;;;5012377;28;20234;-87
2024/01/08 04:18:13;;;;;;;1.30;1.20;;;19.00;39.80;;;;;;5011792;28;20580;-87
2024/01/08 04:20:38;;;;;;;1.50;1.40;;;19.00;39.70;;;;;;5014978;28;20222;-87
2024/01/08 04:23:04;;;;;;;1.60;1.40;;;19.00;39.80;;;;;;5009360;28;20454;-87
2024/01/08 04:25:29;;;;;;;1.50;1.40;;;19.00;39.70;;;;;;5009939;28;20588;-86
2024/01/08 04:27:55;;;;;;;1.60;1.50;;;19.00;39.70;;;;;;4997566;28;21063;-86
2024/01/08 04:30:20;;;;;;;1.33;1.23;;;19.00;39.70;;;;;;5013876;28;20669;-87
2024/01/08 04:32:46;;;;;;;1.40;1.30;;;19.00;39.70;;;;;;5011164;28;20226;-86
2024/01/08 04:35:12;;;;;;;1.50;1.40;;;19.00;39.70;;;;;;5011521;28;20211;-87
2024/01/08 04:37:38;;;;;;;1.73;1.63;;;19.00;39.70;;;;;;5010016;28;20787;-86
2024/01/08 04:40:04;;;;;;;1.80;1.70;;;19.00;39.70;;;;;;5012585;28;20949;-86
2024/01/08 04:42:29;;;;;;;1.40;1.30;;;19.00;39.70;;;;;;5009039;28;20234;-87
2024/01/08 04:44:55;;;;;;;1.40;1.30;;;19.00;39.70;;;;;;5012197;28;20456;-87
2024/01/08 04:47:20;;;;;;;1.40;1.30;;;19.00;39.70;;;;;;5012149;28;20214;-88
2024/01/08 04:49:46;;;;;;;1.40;1.30;;;19.00;39.70;;;;;;5012344;28;21351;-88
2024/01/08 04:52:11;;;;;;;1.57;1.47;;;19.00;39.70;;;;;;5009947;28;20745;-87
2024/01/08 04:54:37;;;;;;;1.30;1.20;;;19.00;39.60;;;;;;5013845;28;20241;-87
2024/01/08 04:57:03;;;;;;;3.73;1.50;;;19.00;39.60;;;;;;5010911;28;20245;-88
2024/01/08 04:59:28;;;;;;;1.33;1.23;;;19.10;39.60;;;;;;5011952;28;20258;-87
2024/01/08 05:01:54;;;;;;;1.50;1.30;;;19.00;39.50;;;;;;5014048;28;20780;-87
2024/01/08 05:04:19;;;;;;;1.50;1.40;;;19.10;39.60;;;;;;5013527;28;20724;-87
2024/01/08 05:06:45;;;;;;;1.40;1.30;;;19.10;40.30;;;;;;5013382;28;20235;-87
2024/01/08 05:09:11;;;;;;;1.50;1.40;;;19.10;39.60;;;;;;4995955;28;20321;-88
2024/01/08 05:11:37;;;;;;;1.40;1.30;;;19.10;39.60;;;;;;5018265;28;20475;-88
2024/01/08 05:14:04;;;;;;;1.40;1.30;;;19.10;39.50;;;;;;5002378;28;20948;-88
2024/01/08 05:16:29;;;;;;;1.70;1.60;;;19.10;39.50;;;;;;5018860;28;20368;-88
2024/01/08 05:18:55;;;;;;;1.20;1.10;;;19.10;39.40;;;;;;5017974;28;20510;-87
2024/01/08 05:21:20;;;;;;;1.60;1.50;;;19.10;39.40;;;;;;4993193;28;20776;-87
2024/01/08 05:23:46;;;;;;;1.37;1.27;;;19.10;39.30;;;;;;4986943;28;20222;-85
2024/01/08 05:26:12;;;;;;;1.50;1.40;;;19.20;39.30;;;;;;5004151;28;20226;-87
2024/01/08 05:28:37;;;;;;;1.57;1.47;;;19.10;39.20;;;;;;4990775;28;20238;-88
2024/01/08 05:31:03;;;;;;;1.20;1.10;;;19.20;39.30;;;;;;5007871;28;20227;-86
2024/01/08 05:33:29;;;;;;;1.40;1.30;;;19.20;39.20;;;;;;5005407;28;20326;-86
2024/01/08 05:35:54;;;;;;;1.40;1.30;;;19.20;39.20;;;;;;5009003;28;20219;-87
2024/01/08 05:38:20;;;;;;;1.43;1.33;;;19.20;39.20;;;;;;5006703;28;20689;-86
2024/01/08 05:40:46;;;;;;;1.33;1.23;;;19.20;39.20;;;;;;5015831;28;20694;-86
2024/01/08 05:43:13;;;;;;;1.40;1.30;;;19.20;39.10;;;;;;5016564;28;20438;-86
2024/01/08 05:45:39;;;;;;;1.40;1.30;;;19.20;39.10;;;;;;5018583;28;20427;-89
2024/01/08 05:48:05;;;;;;;1.73;1.63;;;19.20;39.00;;;;;;5020195;28;20427;-84
2024/01/08 05:50:30;;;;;;;1.47;1.30;;;19.20;39.00;;;;;;5015727;28;20250;-84
2024/01/08 05:52:56;;;;;;;1.60;1.50;;;19.20;39.00;;;;;;5018666;28;20493;-84
2024/01/08 05:55:22;;;;;;;3.60;1.27;;;19.20;39.00;;;;;;5012861;28;20276;-83
2024/01/08 05:57:49;;;;;;;1.37;1.20;;;19.20;38.90;;;;;;5024762;28;20223;-89
2024/01/08 06:00:16;;;;;;;1.37;1.27;;;19.20;38.80;;;;;;5023471;28;20459;-88
2024/01/08 06:02:42;;;;;;;3.13;1.80;;;19.30;38.70;;;;;;5008498;28;20527;-90
2024/01/08 06:05:08;;;;;;;1.40;1.30;;;19.30;38.60;;;;;;4997782;28;20442;-87
2024/01/08 06:07:34;;;;;;;1.50;1.40;;;19.30;38.60;;;;;;5017928;28;20222;-88
2024/01/08 06:09:59;;;;;;;1.40;1.30;;;19.30;38.60;;;;;;5016353;28;20438;-84
2024/01/08 06:12:25;;;;;;;1.50;1.40;;;19.30;38.60;;;;;;5017873;28;20226;-83
2024/01/08 06:14:51;;;;;;;1.80;1.70;;;19.30;38.60;;;;;;5010979;28;20379;-84
2024/01/08 06:17:17;;;;;;;1.40;1.30;;;19.30;38.60;;;;;;5011493;28;20694;-84
2024/01/08 06:19:43;;;;;;;1.30;1.20;;;19.30;38.60;;;;;;5017255;28;20243;-86
2024/01/08 06:22:09;;;;;;;1.67;1.57;;;19.30;38.60;;;;;;5017084;28;20471;-83
2024/01/08 06:24:34;;;;;;;1.50;1.40;;;19.30;38.60;;;;;;5024288;28;20785;-85
2024/01/08 06:27:00;;;;;;;1.30;1.20;;;19.30;38.70;;;;;;5028675;28;26145;-84
2024/01/08 06:29:25;;;;;;;1.50;1.40;;;19.30;38.70;;;;;;5022905;28;20273;-88
2024/01/08 06:31:51;;;;;;;1.70;1.20;;;19.20;38.70;;;;;;5024682;28;20234;-87
2024/01/08 06:34:17;;;;;;;3.13;1.40;;;19.30;38.80;;;;;;5017317;28;20235;-88
2024/01/08 06:36:43;;;;;;;1.43;1.33;;;19.30;38.80;;;;;;5016471;28;21154;-84
2024/01/08 06:39:11;;;;;;;2.73;1.60;;;19.30;38.70;;;;;;5022980;28;20574;-83
2024/01/08 06:41:37;;;;;;;1.63;1.53;;;19.30;38.90;;;;;;5021557;28;20234;-84
2024/01/08 06:44:03;;;;;;;1.93;1.30;;;19.30;38.70;;;;;;5004910;28;20928;-86
2024/01/08 06:46:29;;;;;;;1.37;1.27;;;19.30;38.80;;;;;;5021816;28;20222;-83
2024/01/08 06:48:55;;;;;;;1.67;1.40;;;19.30;38.70;;;;;;5017378;28;20435;-84
2024/01/08 06:51:20;;;;;;;1.67;1.40;;;19.30;38.80;;;;;;5015594;28;20229;-85
2024/01/08 06:53:47;;;;;;;1.27;1.17;;;19.30;38.70;;;;;;5013750;28;20229;-87
2024/01/08 06:56:12;;;;;;;1.50;1.40;;;19.30;38.70;;;;;;5021093;28;20311;-87
2024/01/08 06:58:38;;;;;;;1.30;1.20;;;19.30;38.70;;;;;;5018675;28;20522;-83
2024/01/08 07:01:05;;;;;;;3.13;1.27;;;19.30;38.70;;;;;;5017368;28;20231;-84
2024/01/08 07:03:31;;;;;;;1.43;1.33;;;19.20;38.60;;;;;;5022415;28;20223;-84
2024/01/08 07:05:56;;;;;;;1.50;1.40;;;19.30;38.70;;;;;;5023744;28;20460;-84
2024/01/08 07:08:22;;;;;;;1.57;1.47;;;19.20;38.60;;;;;;5013963;28;20949;-84
2024/01/08 07:10:49;;;;;;;1.40;1.30;;;19.20;38.60;;;;;;5024863;28;20628;-84
2024/01/08 07:13:17;;;;;;;1.33;1.20;;;19.30;38.80;;;;;;5024008;28;20250;-84
2024/01/08 07:15:45;;;;;;;1.50;1.40;;;19.30;38.60;;;;;;5001790;28;21017;-84
2024/01/08 07:18:11;;;;;;;2.37;1.33;;;19.20;38.50;;;;;;5018765;28;20427;-86
2024/01/08 07:20:38;;;;;;;1.63;1.53;;;19.30;38.60;;;;;;5022118;28;20433;-85
2024/01/08 07:23:08;;;;;;;1.50;1.40;;;19.20;38.50;;;;;;5015054;28;20243;-85
2024/01/08 07:25:35;;;;;;;1.30;1.20;;;19.30;38.60;;;;;;5019380;28;20423;-84
2024/01/08 07:28:01;;;;;;;1.80;1.70;;;19.20;38.50;;;;;;5026426;28;20984;-84
2024/01/08 07:30:26;;;;;;;1.40;1.30;;;19.30;38.60;;;;;;5025356;28;20513;-84
2024/01/08 07:32:52;;;;;;;1.60;1.50;;;19.30;38.60;;;;;;5022343;28;20206;-87
2024/01/08 07:35:17;;;;;;;1.53;1.40;;;19.20;38.50;;;;;;5023907;28;20389;-84
2024/01/08 07:37:43;;;;;;;1.87;1.37;;;19.20;38.60;;;;;;5022665;28;20270;-86
2024/01/08 07:40:09;;;;;;;1.80;1.70;;;19.20;38.50;;;;;;5026674;28;20628;-84
2024/01/08 07:42:34;;;;;;;1.50;1.40;;;19.20;38.50;;;;;;5020700;28;20243;-86
2024/01/08 07:45:00;;;;;;;1.47;1.37;;;19.20;38.50;;;;;;5025824;28;22326;-84
2024/01/08 07:47:26;;;;;;;1.50;1.40;;;19.20;38.50;;;;;;5023251;28;20214;-84
2024/01/08 07:49:51;;;;;;;1.43;1.33;;;19.20;38.50;;;;;;5026951;28;20301;-87
2024/01/08 07:52:17;;;;;;;1.80;1.63;;;19.20;38.50;;;;;;5019325;28;20538;-84
2024/01/08 07:54:43;;;;;;;1.50;1.40;;;19.20;38.50;;;;;;5021486;28;20206;-84
2024/01/08 07:57:08;;;;;;;1.30;1.20;;;19.20;38.60;;;;;;5034220;28;20261;-84
2024/01/08 07:59:34;;;;;;;1.50;1.40;;;19.20;38.50;;;;;;5023829;28;20233;-84
2024/01/08 08:01:59;;;;;;;1.50;1.40;;;19.20;38.50;;;;;;5024565;28;20745;-84
2024/01/08 08:04:25;;;;;;;1.40;1.30;;;19.20;38.50;;;;;;5007566;28;20673;-84
2024/01/08 08:06:50;;;;;;;1.40;1.30;;;19.20;38.50;;;;;;5025438;28;20667;-85
2024/01/08 08:09:16;;;;;;;1.63;1.53;;;19.20;38.50;;;;;;5024096;28;20219;-85
2024/01/08 08:11:41;;;;;;;1.83;1.67;;;19.20;38.50;;;;;;5020132;28;20219;-83
2024/01/08 08:14:07;;;;;;;1.37;1.20;;;19.20;38.50;;;;;;5018277;28;20662;-87
2024/01/08 08:16:32;;;;;;;1.47;1.37;;;19.20;38.50;;;;;;5022961;28;20262;-84
2024/01/08 08:18:58;;;;;;;1.50;1.40;;;19.20;38.60;;;;;;5006134;28;20233;-84
2024/01/08 08:21:24;;;;;;;2.40;1.60;;;19.20;38.50;;;;;;5021429;28;20218;-84
2024/01/08 08:23:50;;;;;;;1.50;1.40;;;19.20;38.50;;;;;;5018702;28;20610;-85
2024/01/08 08:26:16;;;;;;;1.30;1.20;;;19.20;38.50;;;;;;5024578;28;20291;-84
2024/01/08 08:28:42;;;;;;;3.10;1.40;;;19.20;38.50;;;;;;5007250;28;20505;-84
2024/01/08 08:31:08;;;;;;;1.60;1.50;;;19.20;38.50;;;;;;5024927;28;20444;-84
2024/01/08 08:33:33;;;;;;;1.50;1.40;;;19.20;38.50;;;;;;5009482;28;20643;-83
2024/01/08 08:35:59;;;;;;;1.50;1.40;;;19.10;38.40;;;;;;5024138;28;20229;-84
2024/01/08 08:38:24;;;;;;;1.53;1.43;;;19.20;38.50;;;;;;5024122;28;20242;-84
2024/01/08 08:40:50;;;;;;;1.40;1.30;;;19.20;38.50;;;;;;5030351;28;20581;-84
2024/01/08 08:43:16;;;;;;;1.47;1.30;;;19.10;38.40;;;;;;5007950;28;20816;-85
2024/01/08 08:45:42;;;;;;;1.40;1.30;;;19.10;38.40;;;;;;5026493;28;20294;-84
2024/01/08 08:48:09;;;;;;;1.43;1.33;;;19.10;38.40;;;;;;5029052;28;20226;-89
2024/01/08 08:50:34;;;;;;;1.60;1.50;;;19.10;38.40;;;;;;5006008;28;20218;-87
2024/01/08 08:53:00;;;;;;;1.47;1.37;;;19.10;38.40;;;;;;5033072;28;20418;-87
2024/01/08 08:55:25;;;;;;;1.47;1.37;;;19.10;38.40;;;;;;5020828;28;20226;-84
2024/01/08 08:57:51;;;;;;;1.63;1.53;;;19.10;38.40;;;;;;5005109;28;20226;-84
2024/01/08 09:00:17;;;;;;;1.40;1.30;;;19.10;38.40;;;;;;5022075;28;20276;-85
2024/01/08 09:02:42;;;;;;;1.40;1.30;;;19.10;38.40;;;;;;5023827;28;20278;-83
2024/01/08 09:05:08;;;;;;;1.53;1.43;;;19.10;38.40;;;;;;5006472;28;20423;-84
2024/01/08 09:07:34;;;;;;;1.50;1.40;;;19.10;38.40;;;;;;5005293;28;20226;-86
2024/01/08 09:10:00;;;;;;;1.33;1.23;;;19.10;38.40;;;;;;5006133;28;20249;-84
2024/01/08 09:12:26;;;;;;;1.67;1.57;;;19.10;38.40;;;;;;5029691;28;20219;-84
2024/01/08 09:14:52;;;;;;;1.40;1.30;;;19.10;38.40;;;;;;5003455;28;21192;-84
2024/01/08 09:17:18;;;;;;;1.73;1.63;;;19.10;38.40;;;;;;5015518;28;20477;-84
2024/01/08 09:19:43;;;;;;;1.60;1.50;;;19.10;38.40;;;;;;5021439;28;20206;-87
2024/01/08 09:22:09;;;;;;;1.50;1.40;;;19.10;38.40;;;;;;5010201;28;20242;-84
2024/01/08 09:24:35;;;;;;;1.73;1.63;;;19.10;38.40;;;;;;5024071;28;20210;-91
2024/01/08 09:27:01;;;;;;;1.47;1.37;;;19.10;38.40;;;;;;5021405;28;21855;-85
2024/01/08 09:29:26;;;;;;;1.40;1.30;;;19.10;38.40;;;;;;5009344;28;20214;-90
2024/01/08 09:31:53;;;;;;;1.67;1.57;;;19.10;38.40;;;;;;5018183;28;20446;-85
2024/01/08 09:34:18;;;;;;;1.70;1.60;;;19.10;38.40;;;;;;5021519;28;20245;-84
2024/01/08 09:36:44;;;;;;;1.40;1.30;;;19.10;38.40;;;;;;5017023;28;20942;-83
2024/01/08 09:39:11;;;;;;;1.50;1.40;;;19.10;38.40;;;;;;4994165;28;20580;-84
2024/01/08 09:41:37;;;;;;;2.13;1.50;;;19.10;38.40;;;;;;5007345;28;20305;-85
2024/01/08 09:44:05;;;;;;;1.70;1.60;;;19.10;38.50;;;;;;5019317;28;20419;-92
2024/01/08 09:46:35;;;;;;;1.53;1.43;;;19.10;38.40;;;;;;4997764;28;20439;-92
2024/01/08 09:49:03;;;;;;;1.50;1.40;;;19.10;38.40;;;;;;5017403;28;20724;-91
2024/01/08 09:51:29;;;;;;;1.70;1.60;;;19.10;38.40;;;;;;5002187;28;20435;-91
2024/01/08 09:53:57;;;;;;;1.50;1.40;;;19.10;38.40;;;;;;5006217;28;20867;-87
2024/01/08 09:56:24;;;;;;;1.83;1.40;;;19.10;38.40;;;;;;5026246;28;20218;-91
2024/01/08 09:58:50;;;;;;;1.50;1.40;;;19.10;38.40;;;;;;5025858;28;20511;-93
2024/01/08 10:01:15;;;;;;;1.57;1.47;;;19.10;38.40;;;;;;5004827;28;21182;-92
2024/01/08 10:03:42;;;;;;;1.60;1.50;;;19.10;38.40;;;;;;5002206;28;20486;-88
2024/01/08 10:06:09;;;;;;;1.60;1.50;;;19.10;38.40;;;;;;5026807;28;20226;-91
2024/01/08 10:08:35;;;;;;;1.50;1.40;;;19.10;39.20;;;;;;5022926;28;20437;-89
2024/01/08 10:11:02;;;;;;;1.60;1.50;;;19.10;38.40;;;;;;5015546;28;20525;-89
2024/01/08 10:13:28;;;;;;;1.33;1.23;;;19.10;38.40;;;;;;5015877;28;20658;-88
2024/01/08 10:15:53;;;;;;;1.50;1.40;;;19.10;38.40;;;;;;5017364;28;20429;-91
2024/01/08 10:18:19;;;;;;;1.60;1.50;;;19.10;38.40;;;;;;5004288;28;20238;-91
2024/01/08 10:20:46;;;;;;;1.40;1.30;;;19.10;38.40;;;;;;5011606;28;20221;-88
2024/01/08 10:23:16;;;;;;;1.30;1.20;;;19.10;38.40;;;;;;5024197;28;20238;-92
2024/01/08 10:25:51;;;;;;;1.50;1.40;;;19.10;38.40;;;;;;5022014;28;20416;-92
2024/01/08 10:28:18;;;;;;;2.00;1.50;;;19.10;38.40;;;;;;5024838;28;20441;-89
2024/01/08 10:30:44;;;;;;;1.60;1.50;;;19.10;38.40;;;;;;5010998;28;20497;-89
2024/01/08 10:33:10;;;;;;;1.60;1.50;;;19.00;38.30;;;;;;5024290;28;20539;-89
2024/01/08 10:35:37;;;;;;;1.70;1.60;;;19.00;38.30;;;;;;5025433;28;20212;-91
2024/01/08 10:38:07;;;;;;;1.47;1.37;;;19.00;38.30;;;;;;5008990;28;20414;-92
2024/01/08 10:40:33;;;;;;;1.60;1.50;;;19.00;38.30;;;;;;5008201;28;20451;-91
2024/01/08 10:42:59;;;;;;;1.33;1.23;;;19.00;38.30;;;;;;5024448;28;20510;-93
2024/01/08 10:45:24;;;;;;;3.00;1.60;;;19.00;38.30;;;;;;5023374;28;20442;-90
2024/01/08 10:48:07;;;;;;;1.40;1.30;;;19.00;38.30;;;;;;5020103;28;20227;-87
2024/01/08 10:50:36;;;;;;;1.57;1.47;;;19.00;38.30;;;;;;5017941;28;20318;-89
2024/01/08 10:53:02;;;;;;;1.50;1.40;;;19.00;38.30;;;;;;5017321;28;20469;-88
2024/01/08 10:55:30;;;;;;;1.50;1.40;;;19.00;38.30;;;;;;5016776;28;20447;-89
2024/01/08 10:58:09;;;;;;;2.10;2.00;;;19.00;38.30;;;;;;5016631;28;20437;-89
2024/01/08 11:00:35;;;;;;;1.50;1.40;;;19.00;38.30;;;;;;4996289;28;20488;-88
2024/01/08 11:03:02;;;;;;;1.30;1.20;;;19.00;38.30;;;;;;5015381;28;20434;-86
2024/01/08 11:05:31;;;;;;;1.63;1.53;;;19.00;38.30;;;;;;5011138;28;20510;-88
2024/01/08 11:07:57;;;;;;;1.40;1.30;;;19.00;38.30;;;;;;5018448;28;20427;-87
2024/01/08 11:10:23;;;;;;;1.83;1.63;;;19.00;38.30;;;;;;5001037;28;20435;-87
2024/01/08 11:12:56;;;;;;;1.60;1.50;;;19.00;38.30;;;;;;5019514;28;20423;-87
2024/01/08 11:15:26;;;;;;;1.87;1.77;;;19.00;38.30;;;;;;5014166;28;20937;-88
2024/01/08 11:17:58;;;;;;;1.53;1.43;;;19.00;38.30;;;;;;4999704;28;20438;-87
2024/01/08 11:20:44;;;;;;;1.40;1.30;;;19.00;38.30;;;;;;5012603;28;20438;-87
2024/01/08 11:23:33;;;;;;;1.60;1.50;;;19.00;38.30;;;;;;5009547;28;20545;-88
2024/01/08 11:26:00;;;;;;;1.50;1.40;;;19.00;38.30;;;;;;5010156;28;20457;-87
2024/01/08 11:28:26;;;;;;;1.40;1.30;;;19.00;39.10;;;;;;5016233;28;20439;-87
2024/01/08 11:31:14;;;;;;;1.57;1.47;;;19.00;38.30;;;;;;5016522;28;20434;-87
2024/01/08 11:34:00;;;;;;;1.80;1.70;;;19.00;38.30;;;;;;5015938;28;20272;-87
2024/01/08 11:36:48;;;;;;;1.60;1.50;;;19.00;38.30;;;;;;4961857;28;20436;-87
2024/01/08 11:39:18;;;;;;;1.60;1.50;;;19.00;38.30;;;;;;5014959;28;20523;-91
2024/01/08 11:41:45;;;;;;;1.53;1.43;;;19.00;38.30;;;;;;5010603;28;20491;-86
2024/01/08 11:44:14;;;;;;;1.40;1.30;;;19.00;38.30;;;;;;5026508;28;20419;-87
2024/01/08 11:46:41;;;;;;;1.57;1.47;;;19.00;38.30;;;;;;5006392;28;20479;-91
2024/01/08 11:49:06;;;;;;;1.60;1.50;;;19.00;38.30;;;;;;5018486;28;20504;-90
2024/01/08 11:51:33;;;;;;;1.40;1.30;;;19.00;38.30;;;;;;5011087;28;20435;-89
2024/01/08 11:54:06;;;;;;;1.63;1.53;;;19.00;38.30;;;;;;5003391;28;20246;-88
2024/01/08 11:56:33;;;;;;;1.37;1.27;;;19.00;39.10;;;;;;4997121;28;20889;-89
2024/01/08 11:58:58;;;;;;;1.67;1.57;;;19.00;38.30;;;;;;5015495;28;20459;-89
2024/01/08 12:01:24;;;;;;;1.30;1.20;;;19.00;38.30;;;;;;4997275;28;20535;-90
2024/01/08 12:03:49;;;;;;;1.50;1.40;;;19.00;38.50;;;;;;5016735;28;20261;-88
2024/01/08 12:06:15;;;;;;;1.50;1.40;;;19.00;38.40;;;;;;5001226;28;20238;-88
2024/01/08 12:08:41;;;;;;;1.60;1.50;;;19.10;38.40;;;;;;4995584;28;20321;-89
2024/01/08 12:11:07;;;;;;;1.60;1.50;;;19.10;38.40;;;;;;5016004;28;20234;-88
2024/01/08 12:13:32;;;;;;;1.53;1.43;;;19.10;38.40;;;;;;5012590;28;20222;-88
2024/01/08 12:15:58;;;;;;;1.60;1.40;;;19.10;38.40;;;;;;5016103;28;20221;-89
2024/01/08 12:18:23;;;;;;;1.53;1.43;;;19.10;38.40;;;;;;4995554;28;20211;-88
2024/01/08 12:20:52;;;;;;;1.50;1.40;;;19.10;38.40;;;;;;5016468;28;20298;-88
2024/01/08 12:23:18;;;;;;;1.37;1.27;;;19.10;38.40;;;;;;5016193;28;20230;-87
2024/01/08 12:25:49;;;;;;;1.67;1.57;;;19.10;38.40;;;;;;5012339;28;20419;-88
2024/01/08 12:28:14;;;;;;;1.43;1.33;;;19.10;38.40;;;;;;5013153;28;20240;-88
2024/01/08 12:30:40;;;;;;;1.40;1.30;;;19.10;38.40;;;;;;5016587;28;20482;-89
2024/01/08 12:33:06;;;;;;;1.77;1.67;;;19.10;38.40;;;;;;5014819;28;20611;-88
2024/01/08 12:35:31;;;;;;;1.47;1.37;;;19.10;38.40;;;;;;5014622;28;21129;-89
2024/01/08 12:37:57;;;;;;;1.67;1.57;;;19.10;38.40;;;;;;5012958;28;20575;-89
2024/01/08 12:40:22;;;;;;;1.60;1.50;;;19.10;38.40;;;;;;5010441;28;20230;-87
2024/01/08 12:42:48;;;;;;;1.40;1.30;;;19.10;38.40;;;;;;5017521;28;20256;-88